weather.gov     
National Weather Service

Terminal Aerodrome Forecast
NWS Homepage
This page is being discontinued on March 12, 2014.
The same data is available at this site. Please update your bookmarks.
Thank you, and we apologize for the inconvenience.
Please send an email to SR-SRH.Webmaster@noaa.gov with any concerns.


Current Version
Previous Version:    01  02  03  04  05  06  07  08  09  10  11  12  13  14  15  16  17  18  19  20  21  22  23  24  25  26  27  28  29  30  
   31  
[Printable]
854
FTUS43 KARX 292048 AAA
TAFLSE
TAF AMD
KLSE 292048Z 2921/3018 30009KT P6SM VCTS SCT050CB
      TEMPO 2921/2922 02020KT
     FM292300 31009KT P6SM VCSH SCT050
     FM300100 32005KT P6SM SCT050
     FM300300 32004KT P6SM SKC
     FM301500 31006KT P6SM SCT050=




854
FTUS43 KARX 292048 AAA
TAFLSE
TAF AMD
KLSE 292048Z 2921/3018 30009KT P6SM VCTS SCT050CB
      TEMPO 2921/2922 02020KT
     FM292300 31009KT P6SM VCSH SCT050
     FM300100 32005KT P6SM SCT050
     FM300300 32004KT P6SM SKC
     FM301500 31006KT P6SM SCT050=


U.S. Dept. of Commerce
NOAA National Weather Service
1325 East West Highway
Silver Spring, MD 20910
E-mail: w-nws.webmaster@noaa.gov
Page last modified: May 16, 2007
NATIONAL WEATHER SERVICE: for Safety, for Work, for Fun - FOR LIFE